Time;durP1;ratioP1;P1;durP2;ratioP2;P2;SDS_P1;SDS_P2;PMS_P1;PMS_P2;Temp;Humidity;BMP_temperature;BMP_pressure;BME280_temperature;BME280_humidity;BME280_pressure;Samples;Min_cycle;Max_cycle;Signal;HPM_P1;HPM_P2
2021/10/06 00:00:20;;;;;;;5.67;1.30;;;;;;;;;;5067534;28;20028;-65
2021/10/06 00:02:45;;;;;;;12.63;2.38;;;;;;;;;;5080457;28;20358;-66
2021/10/06 00:05:10;;;;;;;3.88;1.45;;;;;;;;;;5057098;28;20052;-67
2021/10/06 00:07:35;;;;;;;8.02;1.58;;;;;;;;;;5069460;28;20031;-65
2021/10/06 00:10:01;;;;;;;11.15;1.63;;;;;;;;;;5055650;28;20032;-67
2021/10/06 00:12:26;;;;;;;3.95;0.90;;;;;;;;;;5052280;28;20032;-67
2021/10/06 00:14:51;;;;;;;10.70;2.25;;;;;;;;;;5070939;28;20019;-67
2021/10/06 00:17:17;;;;;;;8.32;1.40;;;;;;;;;;5066415;28;20024;-67
2021/10/06 00:19:42;;;;;;;7.00;1.10;;;;;;;;;;5070160;28;20100;-67
2021/10/06 00:22:07;;;;;;;5.07;1.00;;;;;;;;;;5070455;28;20366;-67
2021/10/06 00:24:32;;;;;;;6.70;1.63;;;;;;;;;;5069094;28;20298;-66
2021/10/06 00:26:58;;;;;;;7.75;1.83;;;;;;;;;;5070822;28;20025;-66
2021/10/06 00:29:23;;;;;;;8.10;1.60;;;;;;;;;;5070416;28;20035;-67
2021/10/06 00:31:48;;;;;;;6.20;1.25;;;;;;;;;;5070081;28;20028;-64
2021/10/06 00:34:15;;;;;;;6.93;1.05;;;;;;;;;;5071909;28;20062;-65
2021/10/06 00:36:40;;;;;;;6.20;0.90;;;;;;;;;;5070258;28;20024;-64
2021/10/06 00:39:05;;;;;;;6.55;2.08;;;;;;;;;;5070528;28;20017;-64
2021/10/06 00:41:31;;;;;;;4.83;1.80;;;;;;;;;;5070583;28;20024;-63
2021/10/06 00:43:56;;;;;;;10.57;0.88;;;;;;;;;;5069946;28;20289;-65
2021/10/06 00:46:21;;;;;;;8.77;0.80;;;;;;;;;;5070676;28;20035;-63
2021/10/06 00:48:46;;;;;;;4.63;0.90;;;;;;;;;;5064111;28;20071;-65
2021/10/06 00:51:12;;;;;;;7.63;1.33;;;;;;;;;;5061768;28;20415;-64
2021/10/06 00:53:38;;;;;;;4.30;1.17;;;;;;;;;;5067799;28;20328;-65
2021/10/06 00:56:03;;;;;;;3.90;0.82;;;;;;;;;;5067538;28;20020;-65
2021/10/06 00:58:28;;;;;;;13.88;1.77;;;;;;;;;;5066787;28;20028;-64
2021/10/06 01:00:53;;;;;;;3.92;1.25;;;;;;;;;;5067251;28;20099;-63
2021/10/06 01:03:20;;;;;;;4.73;1.60;;;;;;;;;;5072044;28;20424;-65
2021/10/06 01:05:45;;;;;;;8.30;1.75;;;;;;;;;;5062981;28;20623;-65
2021/10/06 01:08:10;;;;;;;15.57;1.60;;;;;;;;;;5072146;28;20016;-64
2021/10/06 01:10:36;;;;;;;12.70;1.50;;;;;;;;;;5072171;28;20480;-65
2021/10/06 01:13:01;;;;;;;8.68;1.48;;;;;;;;;;5066466;28;20025;-66
2021/10/06 01:15:26;;;;;;;11.13;1.48;;;;;;;;;;5068540;28;20024;-67
2021/10/06 01:17:52;;;;;;;6.13;1.25;;;;;;;;;;5064333;28;20027;-67
2021/10/06 01:20:17;;;;;;;5.78;1.55;;;;;;;;;;5054092;28;20484;-66
2021/10/06 01:22:42;;;;;;;11.73;1.67;;;;;;;;;;5061573;28;20105;-66
2021/10/06 01:25:08;;;;;;;7.45;1.60;;;;;;;;;;5072451;28;20044;-65
2021/10/06 01:27:37;;;;;;;10.43;1.48;;;;;;;;;;5070687;28;20024;-65
2021/10/06 01:30:04;;;;;;;4.55;1.58;;;;;;;;;;5070230;28;20388;-69
2021/10/06 01:32:33;;;;;;;15.43;1.67;;;;;;;;;;5070991;28;20050;-67
2021/10/06 01:34:59;;;;;;;8.73;1.45;;;;;;;;;;5071614;28;20465;-66
2021/10/06 01:37:25;;;;;;;9.07;1.67;;;;;;;;;;5071173;28;20028;-66
2021/10/06 01:39:50;;;;;;;5.30;1.48;;;;;;;;;;5071866;28;20019;-67
2021/10/06 01:42:15;;;;;;;6.40;1.60;;;;;;;;;;5070927;28;20090;-64
2021/10/06 01:44:40;;;;;;;4.60;1.30;;;;;;;;;;5071199;28;20361;-64
2021/10/06 01:47:06;;;;;;;4.38;1.33;;;;;;;;;;5070991;28;20742;-64
2021/10/06 01:49:31;;;;;;;11.52;1.20;;;;;;;;;;5070727;28;20070;-64
2021/10/06 01:51:56;;;;;;;6.97;1.33;;;;;;;;;;5049099;28;20012;-65
2021/10/06 01:54:21;;;;;;;9.68;2.30;;;;;;;;;;5071220;28;20310;-62
2021/10/06 01:56:46;;;;;;;8.50;2.10;;;;;;;;;;5067793;28;20071;-64
2021/10/06 01:59:12;;;;;;;7.78;1.30;;;;;;;;;;5081506;28;20255;-63
2021/10/06 02:01:37;;;;;;;7.72;1.80;;;;;;;;;;5087575;28;20123;-65
2021/10/06 02:04:02;;;;;;;7.15;1.42;;;;;;;;;;5066252;28;20024;-64
2021/10/06 02:06:27;;;;;;;10.52;1.70;;;;;;;;;;5070951;28;20028;-63
2021/10/06 02:08:52;;;;;;;9.47;1.40;;;;;;;;;;5072883;28;20028;-64
2021/10/06 02:11:18;;;;;;;8.80;1.40;;;;;;;;;;5071774;28;20319;-65
2021/10/06 02:13:43;;;;;;;6.10;1.20;;;;;;;;;;5072843;28;20099;-65
2021/10/06 02:16:08;;;;;;;9.25;1.17;;;;;;;;;;5073152;28;20017;-64
2021/10/06 02:18:33;;;;;;;8.27;1.48;;;;;;;;;;5071824;28;20035;-63
2021/10/06 02:20:58;;;;;;;5.57;2.00;;;;;;;;;;5072751;28;20031;-64
2021/10/06 02:23:24;;;;;;;4.18;1.10;;;;;;;;;;5072239;28;20025;-64
2021/10/06 02:25:49;;;;;;;7.55;2.38;;;;;;;;;;5072586;28;20020;-64
2021/10/06 02:28:14;;;;;;;9.60;1.20;;;;;;;;;;5072708;28;20478;-63
2021/10/06 02:30:39;;;;;;;9.47;1.60;;;;;;;;;;5072711;28;20026;-65
2021/10/06 02:33:05;;;;;;;6.30;1.60;;;;;;;;;;5070456;28;20283;-62
2021/10/06 02:35:30;;;;;;;9.50;1.63;;;;;;;;;;5070603;28;20039;-65
2021/10/06 02:37:55;;;;;;;15.65;2.03;;;;;;;;;;5063197;28;20419;-64
2021/10/06 02:40:21;;;;;;;10.38;2.25;;;;;;;;;;5061665;28;20017;-65
2021/10/06 02:42:47;;;;;;;6.55;1.60;;;;;;;;;;5072029;28;20082;-64
2021/10/06 02:45:13;;;;;;;9.93;3.38;;;;;;;;;;5072249;28;20063;-64
2021/10/06 02:47:39;;;;;;;10.27;2.28;;;;;;;;;;5073706;28;20086;-64
2021/10/06 02:50:05;;;;;;;5.47;1.25;;;;;;;;;;5085426;28;20017;-63
2021/10/06 02:52:30;;;;;;;5.00;1.15;;;;;;;;;;5071699;28;20056;-64
2021/10/06 02:54:55;;;;;;;6.70;1.30;;;;;;;;;;5072079;28;20040;-64
2021/10/06 02:57:21;;;;;;;7.72;1.60;;;;;;;;;;5072340;28;20564;-63
2021/10/06 02:59:46;;;;;;;7.82;2.47;;;;;;;;;;5072113;28;20026;-64
2021/10/06 03:02:11;;;;;;;9.70;1.50;;;;;;;;;;5072130;28;20025;-64
2021/10/06 03:04:36;;;;;;;6.32;1.52;;;;;;;;;;5073731;28;20035;-64
2021/10/06 03:07:02;;;;;;;8.50;1.43;;;;;;;;;;5072365;28;20028;-64
2021/10/06 03:09:27;;;;;;;6.43;1.80;;;;;;;;;;5071639;28;20261;-65
2021/10/06 03:11:52;;;;;;;7.13;1.17;;;;;;;;;;5071536;28;20020;-64
2021/10/06 03:14:17;;;;;;;5.27;1.20;;;;;;;;;;5072069;28;20254;-65
2021/10/06 03:16:42;;;;;;;8.23;1.88;;;;;;;;;;5071323;28;20324;-64
2021/10/06 03:19:08;;;;;;;5.30;1.37;;;;;;;;;;5071373;28;20078;-63
2021/10/06 03:21:33;;;;;;;5.25;1.63;;;;;;;;;;5068998;28;20857;-64
2021/10/06 03:23:58;;;;;;;8.60;1.30;;;;;;;;;;5070046;28;20025;-64
2021/10/06 03:26:23;;;;;;;9.87;1.97;;;;;;;;;;5069877;28;20078;-65
2021/10/06 03:28:48;;;;;;;16.95;1.63;;;;;;;;;;5071621;28;20634;-64
2021/10/06 03:31:14;;;;;;;6.57;1.83;;;;;;;;;;5070810;28;20024;-64
2021/10/06 03:33:39;;;;;;;11.93;2.28;;;;;;;;;;5070591;28;20270;-64
2021/10/06 03:36:04;;;;;;;2.65;0.82;;;;;;;;;;5071250;28;20490;-64
2021/10/06 03:38:30;;;;;;;7.63;1.23;;;;;;;;;;5077894;28;20431;-63
2021/10/06 03:40:55;;;;;;;8.85;1.27;;;;;;;;;;5075861;28;20020;-64
2021/10/06 03:43:20;;;;;;;4.55;1.48;;;;;;;;;;5070653;28;20024;-64
2021/10/06 03:45:46;;;;;;;4.63;1.13;;;;;;;;;;5070524;28;20563;-64
2021/10/06 03:48:11;;;;;;;5.25;0.82;;;;;;;;;;5070487;28;20012;-64
2021/10/06 03:50:36;;;;;;;8.00;2.13;;;;;;;;;;5071149;28;20032;-65
2021/10/06 03:53:02;;;;;;;7.75;1.90;;;;;;;;;;5070127;28;20287;-64
2021/10/06 03:55:28;;;;;;;10.70;2.28;;;;;;;;;;5071873;28;20400;-63
2021/10/06 03:57:53;;;;;;;7.60;1.70;;;;;;;;;;5071469;28;20013;-63
2021/10/06 04:00:18;;;;;;;12.03;1.37;;;;;;;;;;5070202;28;20024;-64
2021/10/06 04:02:44;;;;;;;12.63;1.57;;;;;;;;;;5070601;28;20281;-63
2021/10/06 04:05:09;;;;;;;7.90;1.75;;;;;;;;;;5070373;28;20351;-64
2021/10/06 04:07:35;;;;;;;8.07;1.52;;;;;;;;;;5071160;28;20035;-64
2021/10/06 04:10:00;;;;;;;7.60;1.60;;;;;;;;;;5070536;28;20028;-65
2021/10/06 04:12:25;;;;;;;6.93;1.65;;;;;;;;;;5071400;28;20032;-64
2021/10/06 04:14:50;;;;;;;18.15;1.80;;;;;;;;;;5070603;28;20017;-63
2021/10/06 04:17:15;;;;;;;5.13;1.45;;;;;;;;;;5070654;28;20035;-64
2021/10/06 04:19:41;;;;;;;17.00;1.63;;;;;;;;;;5070064;28;20032;-64
2021/10/06 04:22:06;;;;;;;9.60;1.80;;;;;;;;;;5070441;28;20294;-65
2021/10/06 04:24:31;;;;;;;5.22;1.15;;;;;;;;;;5069855;28;20031;-65
2021/10/06 04:26:56;;;;;;;7.27;1.67;;;;;;;;;;5069281;28;20047;-65
2021/10/06 04:29:21;;;;;;;7.55;2.00;;;;;;;;;;5071310;28;20319;-65
2021/10/06 04:31:46;;;;;;;9.25;1.33;;;;;;;;;;5070326;28;20021;-64
2021/10/06 04:34:12;;;;;;;6.70;1.47;;;;;;;;;;5069372;28;20031;-64
2021/10/06 04:36:37;;;;;;;6.65;1.20;;;;;;;;;;5070145;28;20292;-63
2021/10/06 04:39:02;;;;;;;4.05;1.25;;;;;;;;;;5070153;28;20017;-64
2021/10/06 04:41:27;;;;;;;8.38;1.42;;;;;;;;;;5070498;28;20099;-64
2021/10/06 04:43:53;;;;;;;4.75;1.77;;;;;;;;;;5069363;28;20020;-65
2021/10/06 04:46:19;;;;;;;9.00;1.63;;;;;;;;;;5071517;28;20050;-64
2021/10/06 04:48:45;;;;;;;11.05;1.30;;;;;;;;;;5069756;28;20274;-64
2021/10/06 04:51:10;;;;;;;8.35;1.17;;;;;;;;;;5070494;28;20016;-64
2021/10/06 04:53:35;;;;;;;5.72;1.17;;;;;;;;;;5069721;28;20362;-65
2021/10/06 04:56:00;;;;;;;10.20;1.85;;;;;;;;;;5070151;28;20020;-64
2021/10/06 04:58:26;;;;;;;9.68;2.10;;;;;;;;;;5069146;28;20435;-64
2021/10/06 05:00:51;;;;;;;7.50;0.90;;;;;;;;;;5070474;28;20016;-65
2021/10/06 05:03:16;;;;;;;12.10;2.05;;;;;;;;;;5070790;28;20032;-64
2021/10/06 05:05:42;;;;;;;3.22;1.65;;;;;;;;;;5069880;28;20036;-65
2021/10/06 05:08:07;;;;;;;8.70;1.30;;;;;;;;;;5069840;28;20048;-64
2021/10/06 05:10:33;;;;;;;10.13;1.30;;;;;;;;;;5069614;28;20598;-64
2021/10/06 05:12:58;;;;;;;12.93;1.60;;;;;;;;;;5068351;28;20028;-65
2021/10/06 05:15:23;;;;;;;9.07;1.25;;;;;;;;;;5069290;28;20029;-65
2021/10/06 05:17:49;;;;;;;4.28;1.27;;;;;;;;;;5069589;28;20021;-64
2021/10/06 05:20:14;;;;;;;7.32;1.42;;;;;;;;;;5070972;28;20496;-65
2021/10/06 05:22:39;;;;;;;5.80;1.45;;;;;;;;;;5069437;28;20040;-65
2021/10/06 05:25:04;;;;;;;5.40;0.93;;;;;;;;;;5070061;28;20037;-64
2021/10/06 05:27:30;;;;;;;12.25;1.80;;;;;;;;;;5068933;28;20274;-65
2021/10/06 05:29:56;;;;;;;7.10;1.30;;;;;;;;;;5049957;28;20469;-64
2021/10/06 05:32:21;;;;;;;11.10;2.20;;;;;;;;;;5067912;28;20032;-64
2021/10/06 05:34:46;;;;;;;6.47;1.20;;;;;;;;;;5069654;28;20020;-65
2021/10/06 05:37:11;;;;;;;10.53;1.30;;;;;;;;;;5071021;28;20733;-64
2021/10/06 05:39:37;;;;;;;9.88;1.90;;;;;;;;;;5069615;28;20290;-65
2021/10/06 05:42:02;;;;;;;8.35;1.10;;;;;;;;;;5069000;28;20078;-65
2021/10/06 05:44:27;;;;;;;12.13;2.42;;;;;;;;;;5070929;28;20024;-64
2021/10/06 05:46:53;;;;;;;5.55;1.40;;;;;;;;;;5073553;28;20486;-65
2021/10/06 05:49:18;;;;;;;10.02;1.35;;;;;;;;;;5072827;28;20051;-65
2021/10/06 05:51:43;;;;;;;17.85;1.80;;;;;;;;;;5073361;28;20120;-63
2021/10/06 05:54:08;;;;;;;7.78;1.55;;;;;;;;;;5073370;28;20521;-64
2021/10/06 05:56:34;;;;;;;18.08;2.03;;;;;;;;;;5072607;28;20055;-65
2021/10/06 05:58:59;;;;;;;8.43;2.30;;;;;;;;;;5072697;28;20024;-64
2021/10/06 06:01:26;;;;;;;1.20;0.50;;;;;;;;;;5072003;28;20029;-65
2021/10/06 06:03:52;;;;;;;10.75;1.67;;;;;;;;;;5072734;28;20258;-64
2021/10/06 06:06:17;;;;;;;5.38;1.20;;;;;;;;;;5069573;28;20021;-64
2021/10/06 06:08:42;;;;;;;8.60;1.38;;;;;;;;;;5070450;28;20047;-63
2021/10/06 06:11:07;;;;;;;2.67;1.00;;;;;;;;;;5070662;28;20020;-65
2021/10/06 06:13:32;;;;;;;4.10;0.83;;;;;;;;;;5070307;28;20283;-64
2021/10/06 06:15:58;;;;;;;17.35;2.30;;;;;;;;;;5067929;28;20271;-65
2021/10/06 06:18:23;;;;;;;5.72;1.38;;;;;;;;;;5066997;28;20043;-64
2021/10/06 06:20:48;;;;;;;8.85;1.63;;;;;;;;;;5067458;28;20032;-65
2021/10/06 06:23:13;;;;;;;4.38;1.60;;;;;;;;;;5069108;28;20029;-65
2021/10/06 06:25:39;;;;;;;12.95;3.13;;;;;;;;;;5072060;28;20468;-65
2021/10/06 06:28:04;;;;;;;9.93;1.42;;;;;;;;;;5072439;28;20031;-63
2021/10/06 06:30:30;;;;;;;5.68;1.45;;;;;;;;;;5072473;28;20032;-66
2021/10/06 06:32:55;;;;;;;10.05;1.45;;;;;;;;;;5072064;28;20033;-64
2021/10/06 06:35:20;;;;;;;10.15;1.85;;;;;;;;;;5072404;28;20157;-63
2021/10/06 06:37:45;;;;;;;6.33;1.20;;;;;;;;;;5072492;28;20044;-65
2021/10/06 06:40:11;;;;;;;6.72;1.50;;;;;;;;;;5073463;28;20340;-64
2021/10/06 06:42:36;;;;;;;7.63;1.83;;;;;;;;;;5071271;28;20025;-63
2021/10/06 06:45:02;;;;;;;6.85;1.13;;;;;;;;;;5070692;28;20054;-64
2021/10/06 06:47:27;;;;;;;6.63;1.20;;;;;;;;;;5070844;28;20027;-63
2021/10/06 06:49:53;;;;;;;5.63;1.20;;;;;;;;;;5071814;28;20025;-63
2021/10/06 06:52:18;;;;;;;7.20;1.23;;;;;;;;;;5071751;28;20655;-64
2021/10/06 06:54:43;;;;;;;7.80;1.42;;;;;;;;;;5072029;28;20102;-64
2021/10/06 06:57:09;;;;;;;14.13;1.37;;;;;;;;;;5072683;28;20488;-64
2021/10/06 06:59:34;;;;;;;9.02;1.50;;;;;;;;;;5081086;28;20259;-64
2021/10/06 07:01:59;;;;;;;11.68;1.60;;;;;;;;;;5071133;28;20107;-65
2021/10/06 07:04:24;;;;;;;7.43;1.33;;;;;;;;;;5070863;28;20086;-67
2021/10/06 07:06:53;;;;;;;5.38;0.47;;;;;;;;;;5071009;28;20048;-62
2021/10/06 07:09:22;;;;;;;7.28;1.20;;;;;;;;;;5070410;28;20534;-63
2021/10/06 07:11:47;;;;;;;11.77;1.45;;;;;;;;;;5063818;28;20107;-63
2021/10/06 07:14:13;;;;;;;6.97;1.08;;;;;;;;;;5065417;28;20059;-63
2021/10/06 07:16:38;;;;;;;7.78;1.60;;;;;;;;;;5061966;28;20016;-66
2021/10/06 07:19:03;;;;;;;11.35;1.40;;;;;;;;;;5051670;28;20044;-66
2021/10/06 07:21:29;;;;;;;9.87;1.60;;;;;;;;;;5071146;28;20421;-66
2021/10/06 07:23:55;;;;;;;6.50;1.40;;;;;;;;;;5068614;28;20286;-66
2021/10/06 07:26:20;;;;;;;14.88;2.90;;;;;;;;;;5070774;28;20024;-66
2021/10/06 07:28:45;;;;;;;6.87;1.43;;;;;;;;;;5074284;28;20031;-65
2021/10/06 07:31:10;;;;;;;6.20;1.05;;;;;;;;;;5071632;28;20686;-66
2021/10/06 07:33:36;;;;;;;7.75;1.75;;;;;;;;;;5079419;28;20420;-66
2021/10/06 07:36:01;;;;;;;7.63;1.03;;;;;;;;;;5070943;28;20024;-63
2021/10/06 07:38:26;;;;;;;6.43;1.40;;;;;;;;;;5071413;28;20600;-63
2021/10/06 07:40:51;;;;;;;8.85;1.60;;;;;;;;;;5072260;28;20016;-64
2021/10/06 07:43:16;;;;;;;5.17;1.13;;;;;;;;;;5071062;28;20036;-64
2021/10/06 07:45:44;;;;;;;11.73;2.13;;;;;;;;;;5070842;28;20650;-63
2021/10/06 07:48:09;;;;;;;12.30;1.40;;;;;;;;;;5070122;28;20319;-63
2021/10/06 07:50:34;;;;;;;9.73;1.70;;;;;;;;;;5070939;28;20020;-63
2021/10/06 07:52:59;;;;;;;4.85;1.45;;;;;;;;;;5070949;28;20735;-65
2021/10/06 07:55:24;;;;;;;10.25;1.50;;;;;;;;;;5080543;28;20081;-64
2021/10/06 07:57:50;;;;;;;7.82;1.50;;;;;;;;;;5073124;28;20484;-63
2021/10/06 08:00:16;;;;;;;10.85;2.20;;;;;;;;;;5070036;28;20103;-65
2021/10/06 08:02:42;;;;;;;5.65;0.93;;;;;;;;;;5070220;28;20150;-65
2021/10/06 08:05:07;;;;;;;8.90;2.03;;;;;;;;;;5070749;28;20116;-65
2021/10/06 08:07:33;;;;;;;7.53;1.50;;;;;;;;;;5070945;28;20029;-63
2021/10/06 08:09:58;;;;;;;9.10;2.03;;;;;;;;;;5078537;28;20392;-64
2021/10/06 08:12:23;;;;;;;14.38;2.65;;;;;;;;;;5069975;28;20036;-65
2021/10/06 08:14:48;;;;;;;11.63;1.88;;;;;;;;;;5069779;28;20016;-64
2021/10/06 08:17:14;;;;;;;5.88;1.30;;;;;;;;;;5070240;28;20024;-64
2021/10/06 08:19:39;;;;;;;7.93;1.15;;;;;;;;;;5070638;28;20683;-66
2021/10/06 08:22:04;;;;;;;13.17;2.93;;;;;;;;;;5070282;28;20029;-64
2021/10/06 08:24:29;;;;;;;7.90;1.43;;;;;;;;;;5070023;28;20294;-64
2021/10/06 08:26:54;;;;;;;8.48;1.85;;;;;;;;;;5074369;28;20490;-65
2021/10/06 08:29:19;;;;;;;3.38;1.42;;;;;;;;;;5076052;28;20039;-64
2021/10/06 08:31:45;;;;;;;6.47;1.67;;;;;;;;;;5069777;28;20041;-63
2021/10/06 08:34:10;;;;;;;12.27;2.33;;;;;;;;;;5069884;28;20069;-65
2021/10/06 08:36:37;;;;;;;7.43;1.20;;;;;;;;;;5069948;28;20274;-65
2021/10/06 08:39:03;;;;;;;4.93;1.23;;;;;;;;;;5070263;28;20286;-63
2021/10/06 08:41:32;;;;;;;6.88;1.23;;;;;;;;;;5070155;28;20039;-63
2021/10/06 08:43:58;;;;;;;4.40;1.13;;;;;;;;;;5069649;28;20020;-63
2021/10/06 08:46:23;;;;;;;8.32;1.85;;;;;;;;;;5069267;28;20109;-63
2021/10/06 08:48:52;;;;;;;8.98;1.20;;;;;;;;;;5069933;28;20453;-64
2021/10/06 08:51:17;;;;;;;3.13;0.90;;;;;;;;;;5070522;28;20050;-67
2021/10/06 08:53:43;;;;;;;5.07;1.95;;;;;;;;;;5069244;28;20021;-65
2021/10/06 08:56:08;;;;;;;12.25;1.38;;;;;;;;;;5068574;28;20035;-66
2021/10/06 08:58:33;;;;;;;13.52;1.33;;;;;;;;;;5084311;28;20028;-65
2021/10/06 09:01:00;;;;;;;3.60;0.98;;;;;;;;;;5074658;28;20031;-64
2021/10/06 09:03:35;;;;;;;3.47;1.10;;;;;;;;;;5070036;28;20032;-65
2021/10/06 09:06:08;;;;;;;9.30;0.63;;;;;;;;;;5061859;28;20086;-67
2021/10/06 09:08:34;;;;;;;5.07;1.80;;;;;;;;;;5067528;28;20017;-65
2021/10/06 09:11:00;;;;;;;4.70;0.50;;;;;;;;;;5069831;28;20147;-63
2021/10/06 09:13:27;;;;;;;8.20;1.27;;;;;;;;;;5072628;28;20035;-63
2021/10/06 09:15:53;;;;;;;5.63;0.80;;;;;;;;;;5069937;28;20023;-64
2021/10/06 09:18:19;;;;;;;8.05;1.35;;;;;;;;;;5069612;28;20020;-65
2021/10/06 09:20:45;;;;;;;6.07;1.13;;;;;;;;;;5070330;28;20028;-64
2021/10/06 09:23:15;;;;;;;3.53;0.90;;;;;;;;;;5073336;28;20035;-63
2021/10/06 09:25:49;;;;;;;5.32;0.90;;;;;;;;;;5073047;28;20025;-66
2021/10/06 09:28:18;;;;;;;3.42;0.90;;;;;;;;;;5070711;28;20431;-64
2021/10/06 09:30:43;;;;;;;2.92;0.88;;;;;;;;;;5072867;28;20473;-64
2021/10/06 09:33:08;;;;;;;3.13;1.30;;;;;;;;;;5072966;28;20028;-63
2021/10/06 09:35:34;;;;;;;4.13;1.10;;;;;;;;;;5073120;28;20259;-65
2021/10/06 09:37:59;;;;;;;6.75;0.80;;;;;;;;;;5072813;28;20028;-64
2021/10/06 09:40:26;;;;;;;5.70;1.15;;;;;;;;;;5073556;28;20023;-65
2021/10/06 09:42:52;;;;;;;5.03;1.42;;;;;;;;;;5072074;28;20021;-63
2021/10/06 09:45:23;;;;;;;7.50;1.00;;;;;;;;;;5072431;28;20025;-63
2021/10/06 09:47:59;;;;;;;4.13;0.65;;;;;;;;;;5074483;28;20102;-63
2021/10/06 09:50:25;;;;;;;3.88;0.88;;;;;;;;;;5073644;28;20062;-63
2021/10/06 09:52:52;;;;;;;6.63;1.13;;;;;;;;;;5072110;28;20223;-64
2021/10/06 09:55:18;;;;;;;2.42;0.70;;;;;;;;;;5072991;28;20048;-65
2021/10/06 09:57:44;;;;;;;3.38;0.90;;;;;;;;;;5072189;28;20016;-63
2021/10/06 10:00:18;;;;;;;4.05;0.98;;;;;;;;;;5072547;28;20012;-63
2021/10/06 10:02:43;;;;;;;5.82;1.13;;;;;;;;;;5072393;28;20028;-66
2021/10/06 10:05:09;;;;;;;7.38;1.38;;;;;;;;;;5082535;28;20023;-64
2021/10/06 10:07:35;;;;;;;6.63;0.80;;;;;;;;;;5071983;28;20377;-65
2021/10/06 10:10:01;;;;;;;2.45;0.63;;;;;;;;;;5072360;28;20031;-64
2021/10/06 10:12:27;;;;;;;3.03;0.90;;;;;;;;;;5072410;28;20438;-64
2021/10/06 10:14:52;;;;;;;4.82;0.68;;;;;;;;;;5072337;28;20488;-63
2021/10/06 10:17:18;;;;;;;7.97;1.20;;;;;;;;;;5072800;28;20025;-63
2021/10/06 10:19:44;;;;;;;8.13;0.80;;;;;;;;;;5075463;28;20078;-65
2021/10/06 10:22:11;;;;;;;4.57;1.08;;;;;;;;;;5076514;28;20540;-63
2021/10/06 10:24:43;;;;;;;9.18;0.80;;;;;;;;;;5072639;28;20473;-64
2021/10/06 10:27:10;;;;;;;6.82;0.90;;;;;;;;;;5072038;28;20019;-63
2021/10/06 10:29:42;;;;;;;3.97;1.10;;;;;;;;;;5072527;28;20111;-63
2021/10/06 10:32:08;;;;;;;7.30;1.42;;;;;;;;;;5070858;28;20524;-63
2021/10/06 10:34:52;;;;;;;9.88;1.00;;;;;;;;;;5071748;28;20476;-64
2021/10/06 10:37:17;;;;;;;3.22;0.75;;;;;;;;;;5072264;28;20020;-66
2021/10/06 10:39:43;;;;;;;6.82;1.00;;;;;;;;;;5072475;28;20112;-65
2021/10/06 10:42:08;;;;;;;4.03;1.13;;;;;;;;;;5070793;28;20376;-65
2021/10/06 10:44:36;;;;;;;2.60;1.33;;;;;;;;;;5071762;28;20036;-65
2021/10/06 10:47:05;;;;;;;5.28;1.40;;;;;;;;;;5072250;28;20028;-65
2021/10/06 10:49:44;;;;;;;3.40;1.50;;;;;;;;;;5075023;28;20092;-66
2021/10/06 10:52:09;;;;;;;11.13;3.85;;;;;;;;;;5070739;28;20020;-65
2021/10/06 10:54:34;;;;;;;11.35;5.57;;;;;;;;;;5070438;28;20017;-65
2021/10/06 10:57:04;;;;;;;7.57;2.55;;;;;;;;;;5071980;28;20135;-64
2021/10/06 10:59:39;;;;;;;15.17;6.60;;;;;;;;;;5069744;28;20063;-65
2021/10/06 11:02:13;;;;;;;6.68;2.33;;;;;;;;;;5062012;28;20716;-64
2021/10/06 11:04:38;;;;;;;3.22;1.10;;;;;;;;;;5082488;28;20078;-64
2021/10/06 11:07:21;;;;;;;5.00;1.10;;;;;;;;;;5071056;28;20017;-64
2021/10/06 11:09:49;;;;;;;3.15;0.75;;;;;;;;;;5071505;28;20108;-65
2021/10/06 11:12:15;;;;;;;4.40;0.90;;;;;;;;;;5070550;28;20031;-64
2021/10/06 11:14:44;;;;;;;3.80;0.90;;;;;;;;;;5070364;28;20024;-64
2021/10/06 11:17:16;;;;;;;1.70;0.80;;;;;;;;;;5071009;28;20487;-65
2021/10/06 11:19:42;;;;;;;3.80;0.85;;;;;;;;;;5079793;28;20035;-63
2021/10/06 11:22:23;;;;;;;1.70;0.80;;;;;;;;;;5081428;28;20271;-65
2021/10/06 11:24:48;;;;;;;;;;;;;;;;;;5070859;28;20024;-64
2021/10/06 11:27:13;;;;;;;3.67;0.85;;;;;;;;;;5070930;28;19917;-63
2021/10/06 11:29:45;;;;;;;3.87;0.80;;;;;;;;;;5070805;28;20392;-64
2021/10/06 11:32:10;;;;;;;4.72;1.00;;;;;;;;;;5070356;28;20286;-64
2021/10/06 11:34:45;;;;;;;2.35;1.10;;;;;;;;;;5070762;28;20473;-63
2021/10/06 11:37:29;;;;;;;4.80;1.15;;;;;;;;;;5071976;28;20017;-65
2021/10/06 11:39:54;;;;;;;6.15;1.55;;;;;;;;;;5070238;28;20377;-64
2021/10/06 11:42:20;;;;;;;4.00;1.33;;;;;;;;;;5070250;28;20024;-64
2021/10/06 11:44:46;;;;;;;6.20;1.25;;;;;;;;;;5070748;28;20029;-63
2021/10/06 11:47:12;;;;;;;3.72;1.40;;;;;;;;;;5070835;28;20077;-64
2021/10/06 11:49:38;;;;;;;4.32;1.58;;;;;;;;;;5070353;28;20111;-64
2021/10/06 11:52:05;;;;;;;4.30;1.27;;;;;;;;;;5070952;28;20067;-65
2021/10/06 11:54:30;;;;;;;3.95;1.23;;;;;;;;;;5069796;28;20017;-64
2021/10/06 11:56:59;;;;;;;3.92;1.33;;;;;;;;;;5070705;28;20039;-63
2021/10/06 11:59:26;;;;;;;1.92;1.20;;;;;;;;;;5069039;28;20023;-65
2021/10/06 12:01:59;;;;;;;4.25;1.27;;;;;;;;;;5069728;28;20499;-64
2021/10/06 12:04:26;;;;;;;6.65;1.95;;;;;;;;;;5070031;28;20055;-64
2021/10/06 12:06:59;;;;;;;4.90;1.33;;;;;;;;;;5070349;28;20056;-63
2021/10/06 12:09:24;;;;;;;3.30;1.50;;;;;;;;;;5070996;28;20115;-63
2021/10/06 12:11:50;;;;;;;3.10;1.38;;;;;;;;;;5070143;28;20445;-64
2021/10/06 12:14:22;;;;;;;2.17;1.10;;;;;;;;;;5081086;28;20032;-63
2021/10/06 12:17:08;;;;;;;6.88;1.05;;;;;;;;;;5068692;28;20027;-67
2021/10/06 12:19:34;;;;;;;5.57;1.35;;;;;;;;;;5069428;28;20020;-66
2021/10/06 12:21:59;;;;;;;5.40;1.20;;;;;;;;;;5070115;28;20025;-65
2021/10/06 12:24:27;;;;;;;6.55;1.50;;;;;;;;;;5069622;28;20055;-67
2021/10/06 12:26:52;;;;;;;6.38;1.00;;;;;;;;;;5070370;28;20468;-66
2021/10/06 12:29:22;;;;;;;3.88;1.40;;;;;;;;;;5069657;28;20082;-66
2021/10/06 12:31:47;;;;;;;3.40;1.80;;;;;;;;;;5085647;28;20028;-67
2021/10/06 12:34:14;;;;;;;5.13;1.30;;;;;;;;;;5081029;28;20338;-66
2021/10/06 12:36:49;;;;;;;1.80;1.02;;;;;;;;;;5069772;28;20028;-66
2021/10/06 12:39:16;;;;;;;4.75;1.27;;;;;;;;;;5069906;28;20082;-66
2021/10/06 12:41:43;;;;;;;4.43;1.20;;;;;;;;;;5069856;28;20067;-66
2021/10/06 12:44:35;;;;;;;3.65;1.45;;;;;;;;;;5069473;28;20370;-66
2021/10/06 12:47:01;;;;;;;4.20;1.20;;;;;;;;;;5064755;28;20540;-66
2021/10/06 12:49:27;;;;;;;1.55;0.85;;;;;;;;;;5069843;28;20115;-66
2021/10/06 12:51:57;;;;;;;1.95;0.90;;;;;;;;;;5069152;28;20342;-66
2021/10/06 12:54:23;;;;;;;2.40;0.75;;;;;;;;;;5069514;28;20107;-66
2021/10/06 12:56:53;;;;;;;2.92;1.17;;;;;;;;;;5069103;28;20028;-65
2021/10/06 12:59:27;;;;;;;4.25;1.02;;;;;;;;;;5069947;28;20032;-66
2021/10/06 13:01:52;;;;;;;1.80;0.88;;;;;;;;;;5059528;28;20501;-67
2021/10/06 13:04:17;;;;;;;5.80;1.20;;;;;;;;;;5069003;28;20089;-66
2021/10/06 13:06:49;;;;;;;3.45;1.15;;;;;;;;;;5069551;28;20319;-67
2021/10/06 13:09:15;;;;;;;2.35;1.20;;;;;;;;;;5068053;28;20473;-67
2021/10/06 13:11:41;;;;;;;4.55;1.08;;;;;;;;;;5069666;28;20051;-68
2021/10/06 13:14:07;;;;;;;2.28;1.17;;;;;;;;;;5069790;28;20102;-67
2021/10/06 13:16:33;;;;;;;2.58;1.20;;;;;;;;;;5069971;28;20028;-67
2021/10/06 13:18:59;;;;;;;4.00;0.82;;;;;;;;;;5070768;28;20090;-64
2021/10/06 13:21:25;;;;;;;3.28;1.00;;;;;;;;;;5069564;28;20324;-67
2021/10/06 13:23:50;;;;;;;7.45;1.30;;;;;;;;;;5068615;28;20044;-65
2021/10/06 13:26:15;;;;;;;3.47;1.15;;;;;;;;;;5069471;28;20075;-67
2021/10/06 13:28:42;;;;;;;2.13;1.30;;;;;;;;;;5069486;28;20306;-67
2021/10/06 13:31:07;;;;;;;3.47;1.30;;;;;;;;;;5068775;28;20279;-67
2021/10/06 13:33:33;;;;;;;3.88;1.50;;;;;;;;;;5069102;28;20024;-67
2021/10/06 13:35:58;;;;;;;3.70;0.98;;;;;;;;;;5070245;28;20024;-67
2021/10/06 13:38:23;;;;;;;6.60;1.02;;;;;;;;;;5075709;28;20028;-67
2021/10/06 13:40:49;;;;;;;5.20;1.95;;;;;;;;;;5071902;28;20017;-66
2021/10/06 13:43:14;;;;;;;6.53;2.40;;;;;;;;;;5068402;28;20035;-67
2021/10/06 13:45:40;;;;;;;3.92;1.77;;;;;;;;;;5068166;28;20056;-65
2021/10/06 13:48:05;;;;;;;2.60;1.45;;;;;;;;;;5068634;28;20107;-65
2021/10/06 13:50:30;;;;;;;8.10;1.83;;;;;;;;;;5067777;28;20059;-66
2021/10/06 13:52:56;;;;;;;9.48;2.40;;;;;;;;;;5068498;28;20401;-66
2021/10/06 13:55:21;;;;;;;6.25;2.08;;;;;;;;;;5068425;28;20442;-66
2021/10/06 13:57:46;;;;;;;6.05;2.40;;;;;;;;;;5069452;28;20012;-67
2021/10/06 14:00:12;;;;;;;3.57;1.97;;;;;;;;;;5069645;28;20099;-66
2021/10/06 14:02:37;;;;;;;3.88;1.80;;;;;;;;;;5068706;28;20328;-67
2021/10/06 14:05:02;;;;;;;4.10;1.87;;;;;;;;;;5069626;28;20025;-65
2021/10/06 14:07:28;;;;;;;7.32;1.73;;;;;;;;;;5071010;28;20247;-65
2021/10/06 14:09:53;;;;;;;8.67;1.80;;;;;;;;;;5072578;28;20024;-67
2021/10/06 14:12:19;;;;;;;6.10;2.03;;;;;;;;;;5073170;28;20294;-67
2021/10/06 14:14:44;;;;;;;7.30;3.70;;;;;;;;;;5071620;28;20286;-67
2021/10/06 14:17:09;;;;;;;21.88;11.75;;;;;;;;;;5072766;28;20048;-67
2021/10/06 14:19:34;;;;;;;28.67;16.83;;;;;;;;;;5072036;28;20445;-67
2021/10/06 14:22:00;;;;;;;29.58;17.90;;;;;;;;;;5072669;28;20255;-67
2021/10/06 14:24:25;;;;;;;33.40;18.55;;;;;;;;;;5072483;28;20477;-67
2021/10/06 14:26:50;;;;;;;13.57;6.33;;;;;;;;;;5072633;28;20023;-65
2021/10/06 14:29:15;;;;;;;7.70;3.30;;;;;;;;;;5070933;28;20321;-65
2021/10/06 14:31:40;;;;;;;9.73;1.95;;;;;;;;;;5067107;28;20016;-64
2021/10/06 14:34:06;;;;;;;2.92;1.63;;;;;;;;;;5071449;28;20181;-67